sensor_id;sensor_type;location;lat;lon;timestamp;temperature;humidity
78455;SHT31;67751;51.986;5.696;2024-03-08T00:01:46;6.6;64.9
78455;SHT31;67751;51.986;5.696;2024-03-08T00:04:15;6.6;65.1
78455;SHT31;67751;51.986;5.696;2024-03-08T00:06:45;6.6;65.0
78455;SHT31;67751;51.986;5.696;2024-03-08T00:09:15;6.6;64.6
78455;SHT31;67751;51.986;5.696;2024-03-08T00:11:45;6.5;64.9
78455;SHT31;67751;51.986;5.696;2024-03-08T00:14:16;6.5;65.2
78455;SHT31;67751;51.986;5.696;2024-03-08T00:16:48;6.5;64.9
78455;SHT31;67751;51.986;5.696;2024-03-08T00:19:17;6.5;64.7
78455;SHT31;67751;51.986;5.696;2024-03-08T00:21:47;6.5;64.6
78455;SHT31;67751;51.986;5.696;2024-03-08T00:24:17;6.4;64.4
78455;SHT31;67751;51.986;5.696;2024-03-08T00:26:51;6.4;65.0
78455;SHT31;67751;51.986;5.696;2024-03-08T00:29:21;6.4;64.6
78455;SHT31;67751;51.986;5.696;2024-03-08T00:31:51;6.4;64.6
78455;SHT31;67751;51.986;5.696;2024-03-08T00:34:21;6.4;64.5
78455;SHT31;67751;51.986;5.696;2024-03-08T00:36:50;6.4;64.2
78455;SHT31;67751;51.986;5.696;2024-03-08T00:39:20;6.4;64.4
78455;SHT31;67751;51.986;5.696;2024-03-08T00:41:50;6.3;64.5
78455;SHT31;67751;51.986;5.696;2024-03-08T00:44:20;6.3;64.4
78455;SHT31;67751;51.986;5.696;2024-03-08T00:46:49;6.3;64.6
78455;SHT31;67751;51.986;5.696;2024-03-08T00:49:19;6.3;64.6
78455;SHT31;67751;51.986;5.696;2024-03-08T00:51:50;6.2;64.5
78455;SHT31;67751;51.986;5.696;2024-03-08T00:54:20;6.2;64.6
78455;SHT31;67751;51.986;5.696;2024-03-08T00:56:50;6.2;64.7
78455;SHT31;67751;51.986;5.696;2024-03-08T00:59:20;6.2;64.8
78455;SHT31;67751;51.986;5.696;2024-03-08T01:01:49;6.2;64.5
78455;SHT31;67751;51.986;5.696;2024-03-08T01:04:19;6.2;64.6
78455;SHT31;67751;51.986;5.696;2024-03-08T01:06:50;6.2;64.7
78455;SHT31;67751;51.986;5.696;2024-03-08T01:09:20;6.1;64.2
78455;SHT31;67751;51.986;5.696;2024-03-08T01:11:49;6.1;64.5
78455;SHT31;67751;51.986;5.696;2024-03-08T01:14:22;6.1;64.3
78455;SHT31;67751;51.986;5.696;2024-03-08T01:16:55;6.1;64.4
78455;SHT31;67751;51.986;5.696;2024-03-08T01:19:24;6.1;64.5
78455;SHT31;67751;51.986;5.696;2024-03-08T01:21:54;6.0;64.4
78455;SHT31;67751;51.986;5.696;2024-03-08T01:24:25;6.0;64.5
78455;SHT31;67751;51.986;5.696;2024-03-08T01:26:54;6.0;64.7
78455;SHT31;67751;51.986;5.696;2024-03-08T01:29:24;6.0;64.6
78455;SHT31;67751;51.986;5.696;2024-03-08T01:31:55;6.0;64.3
78455;SHT31;67751;51.986;5.696;2024-03-08T01:34:27;6.0;64.3
78455;SHT31;67751;51.986;5.696;2024-03-08T01:36:58;5.9;64.3
78455;SHT31;67751;51.986;5.696;2024-03-08T01:39:28;5.9;64.2
78455;SHT31;67751;51.986;5.696;2024-03-08T01:41:59;5.9;64.4
78455;SHT31;67751;51.986;5.696;2024-03-08T01:44:30;5.9;64.6
78455;SHT31;67751;51.986;5.696;2024-03-08T01:47:00;5.9;64.5
78455;SHT31;67751;51.986;5.696;2024-03-08T01:49:31;5.9;64.2
78455;SHT31;67751;51.986;5.696;2024-03-08T01:52:04;5.8;64.3
78455;SHT31;67751;51.986;5.696;2024-03-08T01:54:35;5.8;64.5
78455;SHT31;67751;51.986;5.696;2024-03-08T01:57:07;5.8;64.2
78455;SHT31;67751;51.986;5.696;2024-03-08T01:59:37;5.8;63.9
78455;SHT31;67751;51.986;5.696;2024-03-08T02:02:09;5.8;63.7
78455;SHT31;67751;51.986;5.696;2024-03-08T02:04:42;5.8;64.4
78455;SHT31;67751;51.986;5.696;2024-03-08T02:07:12;5.8;64.1
78455;SHT31;67751;51.986;5.696;2024-03-08T02:09:42;5.7;63.9
78455;SHT31;67751;51.986;5.696;2024-03-08T02:12:12;5.7;63.4
78455;SHT31;67751;51.986;5.696;2024-03-08T02:14:41;5.7;63.7
78455;SHT31;67751;51.986;5.696;2024-03-08T02:17:11;5.7;63.6
78455;SHT31;67751;51.986;5.696;2024-03-08T02:19:41;5.7;63.7
78455;SHT31;67751;51.986;5.696;2024-03-08T02:22:11;5.7;63.8
78455;SHT31;67751;51.986;5.696;2024-03-08T02:24:41;5.6;64.1
78455;SHT31;67751;51.986;5.696;2024-03-08T02:27:10;5.6;63.7
78455;SHT31;67751;51.986;5.696;2024-03-08T02:29:42;5.6;63.4
78455;SHT31;67751;51.986;5.696;2024-03-08T02:32:13;5.6;63.3
78455;SHT31;67751;51.986;5.696;2024-03-08T02:34:43;5.6;63.5
78455;SHT31;67751;51.986;5.696;2024-03-08T02:37:12;5.6;63.5
78455;SHT31;67751;51.986;5.696;2024-03-08T02:39:42;5.5;63.8
78455;SHT31;67751;51.986;5.696;2024-03-08T02:42:12;5.5;63.7
78455;SHT31;67751;51.986;5.696;2024-03-08T02:44:44;5.5;63.6
78455;SHT31;67751;51.986;5.696;2024-03-08T02:47:13;5.5;63.3
78455;SHT31;67751;51.986;5.696;2024-03-08T02:49:43;5.5;63.3
78455;SHT31;67751;51.986;5.696;2024-03-08T02:52:13;5.5;63.2
78455;SHT31;67751;51.986;5.696;2024-03-08T02:54:44;5.5;63.7
78455;SHT31;67751;51.986;5.696;2024-03-08T02:57:14;5.5;63.7
78455;SHT31;67751;51.986;5.696;2024-03-08T02:59:44;5.4;63.2
78455;SHT31;67751;51.986;5.696;2024-03-08T03:02:13;5.4;63.0
78455;SHT31;67751;51.986;5.696;2024-03-08T03:04:43;5.4;63.2
78455;SHT31;67751;51.986;5.696;2024-03-08T03:07:15;5.4;63.3
78455;SHT31;67751;51.986;5.696;2024-03-08T03:09:45;5.4;63.4
78455;SHT31;67751;51.986;5.696;2024-03-08T03:12:16;5.4;63.5
78455;SHT31;67751;51.986;5.696;2024-03-08T03:14:46;5.4;63.2
78455;SHT31;67751;51.986;5.696;2024-03-08T03:17:16;5.4;63.3
78455;SHT31;67751;51.986;5.696;2024-03-08T03:19:45;5.3;63.3
78455;SHT31;67751;51.986;5.696;2024-03-08T03:22:16;5.3;62.9
78455;SHT31;67751;51.986;5.696;2024-03-08T03:24:46;5.3;63.4
78455;SHT31;67751;51.986;5.696;2024-03-08T03:27:16;5.3;63.5
78455;SHT31;67751;51.986;5.696;2024-03-08T03:29:47;5.3;63.5
78455;SHT31;67751;51.986;5.696;2024-03-08T03:32:18;5.3;62.7
78455;SHT31;67751;51.986;5.696;2024-03-08T03:34:48;5.3;63.1
78455;SHT31;67751;51.986;5.696;2024-03-08T03:37:20;5.3;63.1
78455;SHT31;67751;51.986;5.696;2024-03-08T03:39:52;5.3;63.3
78455;SHT31;67751;51.986;5.696;2024-03-08T03:42:23;5.3;62.9
78455;SHT31;67751;51.986;5.696;2024-03-08T03:44:54;5.3;63.4
78455;SHT31;67751;51.986;5.696;2024-03-08T03:47:25;5.2;63.3
78455;SHT31;67751;51.986;5.696;2024-03-08T03:49:55;5.2;63.2
78455;SHT31;67751;51.986;5.696;2024-03-08T03:52:29;5.2;63.2
78455;SHT31;67751;51.986;5.696;2024-03-08T03:54:59;5.2;62.9
78455;SHT31;67751;51.986;5.696;2024-03-08T03:57:28;5.2;63.3
78455;SHT31;67751;51.986;5.696;2024-03-08T03:59:58;5.2;63.1
78455;SHT31;67751;51.986;5.696;2024-03-08T04:02:30;5.2;62.9
78455;SHT31;67751;51.986;5.696;2024-03-08T04:05:00;5.2;62.8
78455;SHT31;67751;51.986;5.696;2024-03-08T04:07:29;5.2;63.1
78455;SHT31;67751;51.986;5.696;2024-03-08T04:09:59;5.1;63.2
78455;SHT31;67751;51.986;5.696;2024-03-08T04:12:29;5.1;63.0
78455;SHT31;67751;51.986;5.696;2024-03-08T04:15:00;5.1;63.4
78455;SHT31;67751;51.986;5.696;2024-03-08T04:17:29;5.1;63.2
78455;SHT31;67751;51.986;5.696;2024-03-08T04:19:59;5.0;63.0
78455;SHT31;67751;51.986;5.696;2024-03-08T04:22:32;5.0;63.4
78455;SHT31;67751;51.986;5.696;2024-03-08T04:25:03;5.0;63.4
78455;SHT31;67751;51.986;5.696;2024-03-08T04:27:33;5.0;63.3
78455;SHT31;67751;51.986;5.696;2024-03-08T04:30:03;5.0;63.4
78455;SHT31;67751;51.986;5.696;2024-03-08T04:32:35;4.9;63.5
78455;SHT31;67751;51.986;5.696;2024-03-08T04:35:05;4.9;63.5
78455;SHT31;67751;51.986;5.696;2024-03-08T04:37:37;4.9;63.7
78455;SHT31;67751;51.986;5.696;2024-03-08T04:40:08;4.9;63.7
78455;SHT31;67751;51.986;5.696;2024-03-08T04:42:39;4.9;63.6
78455;SHT31;67751;51.986;5.696;2024-03-08T04:45:10;4.8;63.8
78455;SHT31;67751;51.986;5.696;2024-03-08T04:47:41;4.8;63.7
78455;SHT31;67751;51.986;5.696;2024-03-08T04:50:11;4.8;63.8
78455;SHT31;67751;51.986;5.696;2024-03-08T04:52:41;4.8;64.0
78455;SHT31;67751;51.986;5.696;2024-03-08T04:55:10;4.8;64.1
78455;SHT31;67751;51.986;5.696;2024-03-08T04:57:40;4.7;64.1
78455;SHT31;67751;51.986;5.696;2024-03-08T05:00:12;4.7;64.1
78455;SHT31;67751;51.986;5.696;2024-03-08T05:02:42;4.7;64.0
78455;SHT31;67751;51.986;5.696;2024-03-08T05:05:14;4.7;64.1
78455;SHT31;67751;51.986;5.696;2024-03-08T05:07:43;4.7;64.0
78455;SHT31;67751;51.986;5.696;2024-03-08T05:10:13;4.7;64.2
78455;SHT31;67751;51.986;5.696;2024-03-08T05:12:45;4.7;63.9
78455;SHT31;67751;51.986;5.696;2024-03-08T05:15:14;4.7;64.2
78455;SHT31;67751;51.986;5.696;2024-03-08T05:17:44;4.7;64.7
78455;SHT31;67751;51.986;5.696;2024-03-08T05:20:14;4.7;65.0
78455;SHT31;67751;51.986;5.696;2024-03-08T05:22:44;4.7;64.4
78455;SHT31;67751;51.986;5.696;2024-03-08T05:25:16;4.7;64.1
78455;SHT31;67751;51.986;5.696;2024-03-08T05:27:49;4.7;64.2
78455;SHT31;67751;51.986;5.696;2024-03-08T05:30:19;4.6;64.5
78455;SHT31;67751;51.986;5.696;2024-03-08T05:32:49;4.6;64.5
78455;SHT31;67751;51.986;5.696;2024-03-08T05:35:19;4.6;64.2
78455;SHT31;67751;51.986;5.696;2024-03-08T05:37:48;4.6;64.3
78455;SHT31;67751;51.986;5.696;2024-03-08T05:40:18;4.6;64.3
78455;SHT31;67751;51.986;5.696;2024-03-08T05:42:50;4.6;64.6
78455;SHT31;67751;51.986;5.696;2024-03-08T05:45:19;4.6;64.6
78455;SHT31;67751;51.986;5.696;2024-03-08T05:47:49;4.6;64.5
78455;SHT31;67751;51.986;5.696;2024-03-08T05:50:19;4.6;64.6
78455;SHT31;67751;51.986;5.696;2024-03-08T05:52:49;4.6;64.8
78455;SHT31;67751;51.986;5.696;2024-03-08T05:55:20;4.6;64.8
78455;SHT31;67751;51.986;5.696;2024-03-08T05:57:52;4.6;64.5
78455;SHT31;67751;51.986;5.696;2024-03-08T06:00:23;4.6;64.6
78455;SHT31;67751;51.986;5.696;2024-03-08T06:02:53;4.6;64.8
78455;SHT31;67751;51.986;5.696;2024-03-08T06:05:23;4.6;64.2
78455;SHT31;67751;51.986;5.696;2024-03-08T06:07:52;4.6;64.7
78455;SHT31;67751;51.986;5.696;2024-03-08T06:10:26;4.6;64.5
78455;SHT31;67751;51.986;5.696;2024-03-08T06:12:56;4.6;64.7
78455;SHT31;67751;51.986;5.696;2024-03-08T06:15:25;4.6;64.0
78455;SHT31;67751;51.986;5.696;2024-03-08T06:17:55;4.6;64.4
78455;SHT31;67751;51.986;5.696;2024-03-08T06:20:25;4.6;64.2
78455;SHT31;67751;51.986;5.696;2024-03-08T06:22:55;4.6;64.3
78455;SHT31;67751;51.986;5.696;2024-03-08T06:25:25;4.6;64.4
78455;SHT31;67751;51.986;5.696;2024-03-08T06:27:54;4.5;64.4
78455;SHT31;67751;51.986;5.696;2024-03-08T06:30:24;4.5;65.0
78455;SHT31;67751;51.986;5.696;2024-03-08T06:32:53;4.5;64.7
78455;SHT31;67751;51.986;5.696;2024-03-08T06:35:23;4.5;64.9
78455;SHT31;67751;51.986;5.696;2024-03-08T06:37:53;4.6;64.9
78455;SHT31;67751;51.986;5.696;2024-03-08T06:40:23;4.6;64.0
78455;SHT31;67751;51.986;5.696;2024-03-08T06:42:53;4.6;64.5
78455;SHT31;67751;51.986;5.696;2024-03-08T06:45:25;4.6;64.5
78455;SHT31;67751;51.986;5.696;2024-03-08T06:47:56;4.6;64.7
78455;SHT31;67751;51.986;5.696;2024-03-08T06:50:25;4.6;65.1
78455;SHT31;67751;51.986;5.696;2024-03-08T06:52:55;4.6;63.9
78455;SHT31;67751;51.986;5.696;2024-03-08T06:55:24;4.6;64.8
78455;SHT31;67751;51.986;5.696;2024-03-08T06:57:54;4.6;64.7
78455;SHT31;67751;51.986;5.696;2024-03-08T07:00:24;4.6;64.4
78455;SHT31;67751;51.986;5.696;2024-03-08T07:02:56;4.6;65.0
78455;SHT31;67751;51.986;5.696;2024-03-08T07:05:28;4.6;64.8
78455;SHT31;67751;51.986;5.696;2024-03-08T07:07:59;4.6;64.7
78455;SHT31;67751;51.986;5.696;2024-03-08T07:10:31;4.7;64.5
78455;SHT31;67751;51.986;5.696;2024-03-08T07:13:02;4.7;64.5
78455;SHT31;67751;51.986;5.696;2024-03-08T07:15:32;4.7;64.8
78455;SHT31;67751;51.986;5.696;2024-03-08T07:18:03;4.7;65.0
78455;SHT31;67751;51.986;5.696;2024-03-08T07:20:33;4.7;64.4
78455;SHT31;67751;51.986;5.696;2024-03-08T07:23:04;4.7;65.2
78455;SHT31;67751;51.986;5.696;2024-03-08T07:25:36;4.8;65.1
78455;SHT31;67751;51.986;5.696;2024-03-08T07:28:06;4.8;65.1
78455;SHT31;67751;51.986;5.696;2024-03-08T07:30:36;4.8;64.8
78455;SHT31;67751;51.986;5.696;2024-03-08T07:33:28;4.8;65.2
78455;SHT31;67751;51.986;5.696;2024-03-08T07:35:58;4.8;65.0
78455;SHT31;67751;51.986;5.696;2024-03-08T07:38:28;4.9;65.4
78455;SHT31;67751;51.986;5.696;2024-03-08T07:40:58;4.9;64.7
78455;SHT31;67751;51.986;5.696;2024-03-08T07:43:29;4.9;64.2
78455;SHT31;67751;51.986;5.696;2024-03-08T07:46:00;4.9;64.1
78455;SHT31;67751;51.986;5.696;2024-03-08T07:48:31;5.0;63.5
78455;SHT31;67751;51.986;5.696;2024-03-08T07:51:00;5.0;64.7
78455;SHT31;67751;51.986;5.696;2024-03-08T07:53:30;5.0;64.5
78455;SHT31;67751;51.986;5.696;2024-03-08T07:56:00;5.0;64.3
78455;SHT31;67751;51.986;5.696;2024-03-08T07:58:29;5.1;64.8
78455;SHT31;67751;51.986;5.696;2024-03-08T08:00:59;5.1;64.4
78455;SHT31;67751;51.986;5.696;2024-03-08T08:03:29;5.1;64.4
78455;SHT31;67751;51.986;5.696;2024-03-08T08:05:59;5.2;64.3
78455;SHT31;67751;51.986;5.696;2024-03-08T08:08:28;5.2;64.9
78455;SHT31;67751;51.986;5.696;2024-03-08T08:10:59;5.2;65.1
78455;SHT31;67751;51.986;5.696;2024-03-08T08:13:30;5.3;64.5
78455;SHT31;67751;51.986;5.696;2024-03-08T08:16:00;5.3;64.9
78455;SHT31;67751;51.986;5.696;2024-03-08T08:18:35;5.4;64.8
78455;SHT31;67751;51.986;5.696;2024-03-08T08:21:05;5.4;63.1
78455;SHT31;67751;51.986;5.696;2024-03-08T08:23:37;5.4;64.5
78455;SHT31;67751;51.986;5.696;2024-03-08T08:26:07;5.5;63.5
78455;SHT31;67751;51.986;5.696;2024-03-08T08:28:38;5.5;63.8
78455;SHT31;67751;51.986;5.696;2024-03-08T08:31:10;5.6;64.4
78455;SHT31;67751;51.986;5.696;2024-03-08T08:33:40;5.6;64.7
78455;SHT31;67751;51.986;5.696;2024-03-08T08:36:11;5.6;65.1
78455;SHT31;67751;51.986;5.696;2024-03-08T08:38:41;5.7;65.0
78455;SHT31;67751;51.986;5.696;2024-03-08T08:41:11;5.7;64.7
78455;SHT31;67751;51.986;5.696;2024-03-08T08:43:41;5.8;64.3
78455;SHT31;67751;51.986;5.696;2024-03-08T08:46:12;5.8;63.6
78455;SHT31;67751;51.986;5.696;2024-03-08T08:48:42;5.8;64.4
78455;SHT31;67751;51.986;5.696;2024-03-08T08:51:12;5.9;63.6
78455;SHT31;67751;51.986;5.696;2024-03-08T08:53:42;5.9;64.3
78455;SHT31;67751;51.986;5.696;2024-03-08T08:56:15;5.9;62.6
78455;SHT31;67751;51.986;5.696;2024-03-08T08:58:46;6.0;64.0
78455;SHT31;67751;51.986;5.696;2024-03-08T09:01:16;6.0;62.8
78455;SHT31;67751;51.986;5.696;2024-03-08T09:03:46;6.1;64.1
78455;SHT31;67751;51.986;5.696;2024-03-08T09:06:17;6.1;63.2
78455;SHT31;67751;51.986;5.696;2024-03-08T09:08:49;6.2;63.9
78455;SHT31;67751;51.986;5.696;2024-03-08T09:11:20;6.2;63.5
78455;SHT31;67751;51.986;5.696;2024-03-08T09:13:52;6.3;63.4
78455;SHT31;67751;51.986;5.696;2024-03-08T09:16:22;6.3;61.4
78455;SHT31;67751;51.986;5.696;2024-03-08T09:18:53;6.3;62.9
78455;SHT31;67751;51.986;5.696;2024-03-08T09:21:24;6.4;62.5
78455;SHT31;67751;51.986;5.696;2024-03-08T09:23:54;6.4;62.5
78455;SHT31;67751;51.986;5.696;2024-03-08T09:26:25;6.5;61.2
78455;SHT31;67751;51.986;5.696;2024-03-08T09:28:55;6.5;60.8
78455;SHT31;67751;51.986;5.696;2024-03-08T09:31:27;6.6;61.6
78455;SHT31;67751;51.986;5.696;2024-03-08T09:33:56;6.6;61.9
78455;SHT31;67751;51.986;5.696;2024-03-08T09:36:26;6.7;62.4
78455;SHT31;67751;51.986;5.696;2024-03-08T09:38:56;6.7;62.5
78455;SHT31;67751;51.986;5.696;2024-03-08T09:41:25;6.8;62.6
78455;SHT31;67751;51.986;5.696;2024-03-08T09:43:56;6.9;62.1
78455;SHT31;67751;51.986;5.696;2024-03-08T09:46:29;6.9;62.8
78455;SHT31;67751;51.986;5.696;2024-03-08T09:49:01;7.0;64.1
78455;SHT31;67751;51.986;5.696;2024-03-08T09:51:34;7.0;62.1
78455;SHT31;67751;51.986;5.696;2024-03-08T09:54:06;7.1;60.7
78455;SHT31;67751;51.986;5.696;2024-03-08T09:56:37;7.2;62.3
78455;SHT31;67751;51.986;5.696;2024-03-08T09:59:09;7.2;64.9
78455;SHT31;67751;51.986;5.696;2024-03-08T10:01:54;7.3;62.2
78455;SHT31;67751;51.986;5.696;2024-03-08T10:04:24;7.3;61.7
78455;SHT31;67751;51.986;5.696;2024-03-08T10:06:57;7.4;62.0
78455;SHT31;67751;51.986;5.696;2024-03-08T10:09:27;7.5;62.2
78455;SHT31;67751;51.986;5.696;2024-03-08T10:11:57;7.5;60.4
78455;SHT31;67751;51.986;5.696;2024-03-08T10:14:27;7.6;59.5
78455;SHT31;67751;51.986;5.696;2024-03-08T10:16:57;7.6;61.5
78455;SHT31;67751;51.986;5.696;2024-03-08T10:19:28;7.7;60.2
78455;SHT31;67751;51.986;5.696;2024-03-08T10:22:00;7.7;60.2
78455;SHT31;67751;51.986;5.696;2024-03-08T10:24:32;7.8;60.0
78455;SHT31;67751;51.986;5.696;2024-03-08T10:27:03;7.8;59.7
78455;SHT31;67751;51.986;5.696;2024-03-08T10:29:33;7.9;60.5
78455;SHT31;67751;51.986;5.696;2024-03-08T10:32:03;7.9;59.4
78455;SHT31;67751;51.986;5.696;2024-03-08T10:34:34;7.9;59.6
78455;SHT31;67751;51.986;5.696;2024-03-08T10:37:05;8.0;59.6
78455;SHT31;67751;51.986;5.696;2024-03-08T10:39:36;8.0;59.6
78455;SHT31;67751;51.986;5.696;2024-03-08T10:42:15;8.1;58.2
78455;SHT31;67751;51.986;5.696;2024-03-08T10:45:03;8.1;58.5
78455;SHT31;67751;51.986;5.696;2024-03-08T10:47:30;8.2;58.7
78455;SHT31;67751;51.986;5.696;2024-03-08T10:50:15;8.3;58.4
78455;SHT31;67751;51.986;5.696;2024-03-08T10:52:49;8.3;57.8
78455;SHT31;67751;51.986;5.696;2024-03-08T10:55:20;8.4;58.6
78455;SHT31;67751;51.986;5.696;2024-03-08T10:57:50;8.4;58.9
78455;SHT31;67751;51.986;5.696;2024-03-08T11:00:21;8.5;57.9
78455;SHT31;67751;51.986;5.696;2024-03-08T11:02:54;8.5;57.7
78455;SHT31;67751;51.986;5.696;2024-03-08T11:05:37;8.6;57.7
78455;SHT31;67751;51.986;5.696;2024-03-08T11:08:18;8.7;57.5
78455;SHT31;67751;51.986;5.696;2024-03-08T11:10:49;8.7;56.7
78455;SHT31;67751;51.986;5.696;2024-03-08T11:13:34;8.8;58.0
78455;SHT31;67751;51.986;5.696;2024-03-08T11:16:09;8.8;57.6
78455;SHT31;67751;51.986;5.696;2024-03-08T11:18:40;8.9;57.4
78455;SHT31;67751;51.986;5.696;2024-03-08T11:21:10;8.9;58.0
78455;SHT31;67751;51.986;5.696;2024-03-08T11:23:42;9.0;55.9
78455;SHT31;67751;51.986;5.696;2024-03-08T11:26:24;9.0;55.8
78455;SHT31;67751;51.986;5.696;2024-03-08T11:28:53;9.1;57.5
78455;SHT31;67751;51.986;5.696;2024-03-08T11:31:26;9.1;55.8
78455;SHT31;67751;51.986;5.696;2024-03-08T11:33:56;9.2;55.6
78455;SHT31;67751;51.986;5.696;2024-03-08T11:36:26;9.2;54.9
78455;SHT31;67751;51.986;5.696;2024-03-08T11:39:00;9.3;55.3
78455;SHT31;67751;51.986;5.696;2024-03-08T11:41:36;9.3;55.4
78455;SHT31;67751;51.986;5.696;2024-03-08T11:44:08;9.3;55.0
78455;SHT31;67751;51.986;5.696;2024-03-08T11:46:39;9.4;55.9
78455;SHT31;67751;51.986;5.696;2024-03-08T11:49:14;9.4;56.3
78455;SHT31;67751;51.986;5.696;2024-03-08T11:51:43;9.5;54.2
78455;SHT31;67751;51.986;5.696;2024-03-08T11:54:13;9.5;53.7
78455;SHT31;67751;51.986;5.696;2024-03-08T11:56:44;9.6;54.0
78455;SHT31;67751;51.986;5.696;2024-03-08T11:59:15;9.6;54.8
78455;SHT31;67751;51.986;5.696;2024-03-08T12:02:00;9.7;54.6
78455;SHT31;67751;51.986;5.696;2024-03-08T12:04:31;9.7;53.9
78455;SHT31;67751;51.986;5.696;2024-03-08T12:07:03;9.7;53.3
78455;SHT31;67751;51.986;5.696;2024-03-08T12:09:36;9.8;54.2
78455;SHT31;67751;51.986;5.696;2024-03-08T12:12:08;9.8;52.3
78455;SHT31;67751;51.986;5.696;2024-03-08T12:14:43;9.9;53.1
78455;SHT31;67751;51.986;5.696;2024-03-08T12:17:13;9.9;54.0
78455;SHT31;67751;51.986;5.696;2024-03-08T12:19:47;9.9;52.2
78455;SHT31;67751;51.986;5.696;2024-03-08T12:22:19;10.0;52.7
78455;SHT31;67751;51.986;5.696;2024-03-08T12:25:05;10.0;52.5
78455;SHT31;67751;51.986;5.696;2024-03-08T12:27:38;10.1;51.3
78455;SHT31;67751;51.986;5.696;2024-03-08T12:30:22;10.1;52.0
78455;SHT31;67751;51.986;5.696;2024-03-08T12:32:56;10.2;51.2
78455;SHT31;67751;51.986;5.696;2024-03-08T12:35:27;10.2;51.4
78455;SHT31;67751;51.986;5.696;2024-03-08T12:37:59;10.2;53.2
78455;SHT31;67751;51.986;5.696;2024-03-08T12:40:31;10.3;52.8
78455;SHT31;67751;51.986;5.696;2024-03-08T12:43:02;10.3;51.5
78455;SHT31;67751;51.986;5.696;2024-03-08T12:45:34;10.4;51.7
78455;SHT31;67751;51.986;5.696;2024-03-08T12:48:14;10.4;51.8
78455;SHT31;67751;51.986;5.696;2024-03-08T12:50:44;10.4;51.6
78455;SHT31;67751;51.986;5.696;2024-03-08T12:53:15;10.5;51.1
78455;SHT31;67751;51.986;5.696;2024-03-08T12:55:45;10.5;52.3
78455;SHT31;67751;51.986;5.696;2024-03-08T12:58:14;10.5;50.2
78455;SHT31;67751;51.986;5.696;2024-03-08T13:00:45;10.5;50.1
78455;SHT31;67751;51.986;5.696;2024-03-08T13:03:16;10.5;51.9
78455;SHT31;67751;51.986;5.696;2024-03-08T13:05:45;10.5;51.2
78455;SHT31;67751;51.986;5.696;2024-03-08T13:08:16;10.5;52.2
78455;SHT31;67751;51.986;5.696;2024-03-08T13:10:49;10.5;51.2
78455;SHT31;67751;51.986;5.696;2024-03-08T13:13:20;10.5;52.0
78455;SHT31;67751;51.986;5.696;2024-03-08T13:15:50;10.5;51.7
78455;SHT31;67751;51.986;5.696;2024-03-08T13:18:20;10.5;51.8
78455;SHT31;67751;51.986;5.696;2024-03-08T13:20:50;10.5;51.7
78455;SHT31;67751;51.986;5.696;2024-03-08T13:23:20;10.6;52.0
78455;SHT31;67751;51.986;5.696;2024-03-08T13:25:50;10.6;51.7
78455;SHT31;67751;51.986;5.696;2024-03-08T13:28:19;10.6;52.1
78455;SHT31;67751;51.986;5.696;2024-03-08T13:30:55;10.6;50.9
78455;SHT31;67751;51.986;5.696;2024-03-08T13:33:25;10.6;53.7
78455;SHT31;67751;51.986;5.696;2024-03-08T13:35:55;10.6;52.1
78455;SHT31;67751;51.986;5.696;2024-03-08T13:38:28;10.6;53.3
78455;SHT31;67751;51.986;5.696;2024-03-08T13:41:00;10.6;52.2
78455;SHT31;67751;51.986;5.696;2024-03-08T13:43:30;10.6;51.4
78455;SHT31;67751;51.986;5.696;2024-03-08T13:46:02;10.7;51.1
78455;SHT31;67751;51.986;5.696;2024-03-08T13:48:32;10.7;51.5
78455;SHT31;67751;51.986;5.696;2024-03-08T13:51:01;10.7;51.0
78455;SHT31;67751;51.986;5.696;2024-03-08T13:53:32;10.7;51.8
78455;SHT31;67751;51.986;5.696;2024-03-08T13:56:02;10.7;52.6
78455;SHT31;67751;51.986;5.696;2024-03-08T13:58:33;10.7;53.1
78455;SHT31;67751;51.986;5.696;2024-03-08T14:01:02;10.7;53.0
78455;SHT31;67751;51.986;5.696;2024-03-08T14:03:33;10.7;50.5
78455;SHT31;67751;51.986;5.696;2024-03-08T14:06:04;10.7;51.5
78455;SHT31;67751;51.986;5.696;2024-03-08T14:08:34;10.7;50.4
78455;SHT31;67751;51.986;5.696;2024-03-08T14:11:06;10.7;51.4
78455;SHT31;67751;51.986;5.696;2024-03-08T14:13:42;10.7;51.2
78455;SHT31;67751;51.986;5.696;2024-03-08T14:16:13;10.7;52.2
78455;SHT31;67751;51.986;5.696;2024-03-08T14:18:43;10.7;51.4
78455;SHT31;67751;51.986;5.696;2024-03-08T14:21:12;10.7;52.2
78455;SHT31;67751;51.986;5.696;2024-03-08T14:23:43;10.7;51.3
78455;SHT31;67751;51.986;5.696;2024-03-08T14:26:12;10.7;52.6
78455;SHT31;67751;51.986;5.696;2024-03-08T14:28:43;10.7;52.4
78455;SHT31;67751;51.986;5.696;2024-03-08T14:31:13;10.7;53.7
78455;SHT31;67751;51.986;5.696;2024-03-08T14:33:46;10.7;52.4
78455;SHT31;67751;51.986;5.696;2024-03-08T14:36:17;10.7;50.9
78455;SHT31;67751;51.986;5.696;2024-03-08T14:38:47;10.7;50.8
78455;SHT31;67751;51.986;5.696;2024-03-08T14:41:17;10.7;52.7
78455;SHT31;67751;51.986;5.696;2024-03-08T14:43:48;10.7;52.6
78455;SHT31;67751;51.986;5.696;2024-03-08T14:46:20;10.7;52.6
78455;SHT31;67751;51.986;5.696;2024-03-08T14:48:51;10.7;52.1
78455;SHT31;67751;51.986;5.696;2024-03-08T14:51:21;10.7;52.2
78455;SHT31;67751;51.986;5.696;2024-03-08T14:53:53;10.7;52.8
78455;SHT31;67751;51.986;5.696;2024-03-08T14:56:24;10.7;52.4
78455;SHT31;67751;51.986;5.696;2024-03-08T14:58:54;10.7;52.7
78455;SHT31;67751;51.986;5.696;2024-03-08T15:01:27;10.8;52.8
78455;SHT31;67751;51.986;5.696;2024-03-08T15:04:02;10.8;51.2
78455;SHT31;67751;51.986;5.696;2024-03-08T15:06:36;10.8;51.3
78455;SHT31;67751;51.986;5.696;2024-03-08T15:09:07;10.8;51.9
78455;SHT31;67751;51.986;5.696;2024-03-08T15:11:39;10.7;51.8
78455;SHT31;67751;51.986;5.696;2024-03-08T15:14:10;10.8;52.6
78455;SHT31;67751;51.986;5.696;2024-03-08T15:16:41;10.8;52.1
78455;SHT31;67751;51.986;5.696;2024-03-08T15:19:13;10.8;52.6
78455;SHT31;67751;51.986;5.696;2024-03-08T15:21:43;10.8;51.5
78455;SHT31;67751;51.986;5.696;2024-03-08T15:24:13;10.7;51.0
78455;SHT31;67751;51.986;5.696;2024-03-08T15:26:48;10.7;51.6
78455;SHT31;67751;51.986;5.696;2024-03-08T15:29:21;10.7;52.1
78455;SHT31;67751;51.986;5.696;2024-03-08T15:31:53;10.7;51.8
78455;SHT31;67751;51.986;5.696;2024-03-08T15:34:23;10.7;52.4
78455;SHT31;67751;51.986;5.696;2024-03-08T15:36:53;10.6;52.4
78455;SHT31;67751;51.986;5.696;2024-03-08T15:39:28;10.6;52.4
78455;SHT31;67751;51.986;5.696;2024-03-08T15:42:01;10.6;52.7
78455;SHT31;67751;51.986;5.696;2024-03-08T15:44:30;10.6;52.8
78455;SHT31;67751;51.986;5.696;2024-03-08T15:47:00;10.6;52.5
78455;SHT31;67751;51.986;5.696;2024-03-08T15:49:30;10.6;52.7
78455;SHT31;67751;51.986;5.696;2024-03-08T15:52:00;10.6;52.6
78455;SHT31;67751;51.986;5.696;2024-03-08T15:54:30;10.6;52.4
78455;SHT31;67751;51.986;5.696;2024-03-08T15:56:59;10.5;53.5
78455;SHT31;67751;51.986;5.696;2024-03-08T15:59:36;10.5;52.1
78455;SHT31;67751;51.986;5.696;2024-03-08T16:02:06;10.5;52.9
78455;SHT31;67751;51.986;5.696;2024-03-08T16:04:35;10.5;51.8
78455;SHT31;67751;51.986;5.696;2024-03-08T16:07:05;10.5;51.5
78455;SHT31;67751;51.986;5.696;2024-03-08T16:09:35;10.5;52.4
78455;SHT31;67751;51.986;5.696;2024-03-08T16:12:05;10.4;52.5
78455;SHT31;67751;51.986;5.696;2024-03-08T16:14:38;10.4;52.5
78455;SHT31;67751;51.986;5.696;2024-03-08T16:17:08;10.4;52.3
78455;SHT31;67751;51.986;5.696;2024-03-08T16:19:38;10.4;52.6
78455;SHT31;67751;51.986;5.696;2024-03-08T16:22:09;10.4;51.6
78455;SHT31;67751;51.986;5.696;2024-03-08T16:24:38;10.4;52.5
78455;SHT31;67751;51.986;5.696;2024-03-08T16:27:11;10.3;52.7
78455;SHT31;67751;51.986;5.696;2024-03-08T16:29:40;10.3;52.0
78455;SHT31;67751;51.986;5.696;2024-03-08T16:32:12;10.3;52.7
78455;SHT31;67751;51.986;5.696;2024-03-08T16:34:42;10.3;52.3
78455;SHT31;67751;51.986;5.696;2024-03-08T16:37:12;10.3;53.0
78455;SHT31;67751;51.986;5.696;2024-03-08T16:39:44;10.3;52.6